createdAt,value
2024-05-09T00:00:46.123Z,100042.94
2024-05-09T00:03:13.577Z,100051.31
2024-05-09T00:05:41.658Z,100044.41
2024-05-09T00:08:10.506Z,100039.38
2024-05-09T00:10:39.885Z,100042.28
2024-05-09T00:13:08.641Z,100037.25
2024-05-09T00:15:36.654Z,100039.97
2024-05-09T00:26:10.695Z,100024.66
2024-05-09T00:28:38.072Z,100033.00
2024-05-09T00:31:05.598Z,100028.81
2024-05-09T00:33:33.063Z,100032.16
2024-05-09T00:36:03.762Z,100032.16
2024-05-09T00:38:31.116Z,100034.22
2024-05-09T00:40:58.585Z,100036.31
2024-05-09T00:43:25.933Z,100038.38
2024-05-09T00:46:03.554Z,100036.72
2024-05-09T00:48:34.452Z,100024.56
2024-05-09T00:51:03.268Z,100033.94
2024-05-09T00:53:31.597Z,100028.91
2024-05-09T00:55:59.326Z,100032.88
2024-05-09T00:58:30.774Z,100027.88
2024-05-09T01:01:01.144Z,100040.78
2024-05-09T01:03:28.647Z,100037.44
2024-05-09T01:05:56.109Z,100034.09
2024-05-09T01:08:23.877Z,100030.94
2024-05-09T01:10:51.357Z,100025.72
2024-05-09T01:13:18.731Z,100021.53
2024-05-09T01:15:48.181Z,100020.03
2024-05-09T01:18:15.899Z,100026.69
2024-05-09T01:20:45.107Z,100017.28
2024-05-09T01:23:15.760Z,100020.59
2024-05-09T01:25:45.585Z,100019.31
2024-05-09T01:28:13.660Z,100025.28
2024-05-09T01:30:40.958Z,100022.31
2024-05-09T01:33:10.363Z,100021.22
2024-05-09T01:35:42.003Z,100018.28
2024-05-09T01:38:13.206Z,100022.41
2024-05-09T01:40:41.095Z,100023.63
2024-05-09T01:43:10.094Z,100015.88
2024-05-09T01:45:39.340Z,100016.09
2024-05-09T01:48:07.995Z,100020.22
2024-05-09T01:50:39.845Z,100021.63
2024-05-09T01:53:15.307Z,100020.34
2024-05-09T01:55:44.149Z,100022.59
2024-05-09T01:58:11.964Z,100026.53
2024-05-09T02:00:42.456Z,100018.81
2024-05-09T02:03:15.635Z,100015.44
2024-05-09T02:05:50.184Z,100025.22
2024-05-09T02:08:19.993Z,100025.78
2024-05-09T02:10:48.662Z,100026.19
2024-05-09T02:13:16.858Z,100028.63
2024-05-09T02:15:44.483Z,100016.50
2024-05-09T02:18:12.402Z,100009.78
2024-05-09T02:20:41.612Z,100007.47
2024-05-09T02:23:10.179Z,100007.84
2024-05-09T02:25:37.748Z,100010.94
2024-05-09T02:28:05.325Z,100011.31
2024-05-09T02:30:40.143Z,100013.38
2024-05-09T02:33:12.157Z,100011.25
2024-05-09T02:35:41.786Z,100005.38
2024-05-09T02:38:13.118Z,100004.06
2024-05-09T02:40:41.059Z,100006.97
2024-05-09T02:43:10.676Z,100004.84
2024-05-09T02:45:39.940Z,100004.38
2024-05-09T02:48:10.532Z,99999.34
2024-05-09T02:50:40.808Z,100005.78
2024-05-09T02:53:09.698Z,100005.97
2024-05-09T02:55:38.205Z,100005.97
2024-05-09T02:58:07.972Z,99998.03
2024-05-09T03:00:39.663Z,99989.09
2024-05-09T03:03:11.139Z,99998.19
2024-05-09T03:05:41.098Z,99986.72
2024-05-09T03:08:09.074Z,99985.03
2024-05-09T03:10:38.692Z,99980.66
2024-05-09T03:13:15.290Z,99976.47
2024-05-09T03:15:44.016Z,99979.19
2024-05-09T03:18:12.205Z,99980.19
2024-05-09T03:20:40.298Z,99975.34
2024-05-09T03:23:09.562Z,99976.56
2024-05-09T03:25:38.247Z,99967.84
2024-05-09T03:28:06.058Z,99969.06
2024-05-09T03:30:40.828Z,99970.94
2024-05-09T03:33:19.250Z,99981.94
2024-05-09T03:35:48.418Z,99970.66
2024-05-09T03:38:16.435Z,99961.88
2024-05-09T03:40:48.750Z,99965.63
2024-05-09T03:43:17.419Z,99964.78
2024-05-09T03:45:45.078Z,99958.72
2024-05-09T03:48:12.901Z,99956.00
2024-05-09T03:50:40.564Z,99950.59
2024-05-09T03:53:11.279Z,99953.50
2024-05-09T03:55:39.206Z,99957.88
2024-05-09T03:58:08.115Z,99948.09
2024-05-09T04:00:40.081Z,99945.56
2024-05-09T04:03:11.129Z,99950.34
2024-05-09T04:05:42.099Z,99944.28
2024-05-09T04:08:11.107Z,99944.28
2024-05-09T04:10:38.791Z,99955.09
2024-05-09T04:13:06.194Z,99953.22
2024-05-09T04:15:33.645Z,99948.84
2024-05-09T04:18:01.935Z,99945.50
2024-05-09T04:20:37.569Z,99945.69
2024-05-09T04:23:09.539Z,99946.88
2024-05-09T04:25:37.526Z,99948.94
2024-05-09T04:28:05.644Z,99933.28
2024-05-09T04:30:38.434Z,99936.63
2024-05-09T04:33:11.047Z,99927.88
2024-05-09T04:35:42.273Z,99937.00
2024-05-09T04:38:10.201Z,99934.50
2024-05-09T04:40:38.171Z,99946.16
2024-05-09T04:43:06.975Z,99937.47
2024-05-09T04:45:35.197Z,99935.13
2024-05-09T04:48:03.357Z,99935.94
2024-05-09T04:50:36.820Z,99935.97
2024-05-09T04:53:10.989Z,99933.84
2024-05-09T04:55:40.139Z,99926.69
2024-05-09T04:58:09.427Z,99927.41
2024-05-09T05:00:39.023Z,99928.56
2024-05-09T05:03:14.626Z,99925.59
2024-05-09T05:05:45.456Z,99917.75
2024-05-09T05:08:18.601Z,99925.91
2024-05-09T05:10:48.217Z,99929.97
2024-05-09T05:13:21.213Z,99938.13
2024-05-09T05:15:52.289Z,99933.28
2024-05-09T05:18:19.978Z,99934.22
2024-05-09T05:20:47.708Z,99923.44
2024-05-09T05:23:16.931Z,99927.75
2024-05-09T05:25:44.821Z,99932.22
2024-05-09T05:28:12.251Z,99938.97
2024-05-09T05:30:41.203Z,99936.03
2024-05-09T05:33:11.860Z,99937.69
2024-05-09T05:35:39.444Z,99934.44
2024-05-09T05:38:08.194Z,99938.47
2024-05-09T05:40:40.602Z,99945.91
2024-05-09T05:43:16.206Z,99941.81
2024-05-09T05:45:43.520Z,99950.28
2024-05-09T05:48:11.022Z,99948.94
2024-05-09T05:50:38.951Z,99941.91
2024-05-09T05:53:08.405Z,99948.34
2024-05-09T05:55:42.372Z,99942.13
2024-05-09T05:58:11.015Z,99934.88
2024-05-09T06:00:40.269Z,99952.25
2024-05-09T06:03:10.052Z,99945.13
2024-05-09T06:05:40.555Z,99946.47
2024-05-09T06:08:08.952Z,99953.81
2024-05-09T06:10:39.556Z,99953.91
2024-05-09T06:13:12.279Z,99947.31
2024-05-09T06:15:40.632Z,99951.22
2024-05-09T06:18:10.168Z,99945.06
2024-05-09T06:20:40.197Z,99946.97
2024-05-09T06:23:09.373Z,99941.84
2024-05-09T06:25:37.385Z,99941.09
2024-05-09T06:28:05.197Z,99935.59
2024-05-09T06:33:03.543Z,99934.88
2024-05-09T06:35:31.512Z,99947.19
2024-05-09T06:37:59.033Z,99934.16
2024-05-09T06:40:35.896Z,99935.53
2024-05-09T06:43:06.169Z,99936.94
2024-05-09T06:45:33.520Z,99933.38
2024-05-09T06:48:01.098Z,99924.69
2024-05-09T06:50:35.705Z,99925.69
2024-05-09T06:53:05.768Z,99943.03
2024-05-09T06:55:33.179Z,99946.78
2024-05-09T06:58:00.497Z,99931.63
2024-05-09T07:00:35.564Z,99939.66
2024-05-09T07:03:11.189Z,99937.13
2024-05-09T07:05:40.029Z,99945.03
2024-05-09T07:08:08.044Z,99936.50
2024-05-09T07:10:36.637Z,99939.06
2024-05-09T07:13:11.963Z,99933.66
2024-05-09T07:15:39.759Z,99920.94
2024-05-09T07:18:14.067Z,99924.38
2024-05-09T07:20:42.436Z,99924.63
2024-05-09T07:23:10.867Z,99921.16
2024-05-09T07:25:39.188Z,99923.28
2024-05-09T07:28:10.419Z,99921.19
2024-05-09T07:30:37.720Z,99917.66
2024-05-09T07:33:05.544Z,99923.09
2024-05-09T07:35:33.356Z,99926.09
2024-05-09T07:38:00.867Z,99918.03
2024-05-09T07:40:34.835Z,99918.28
2024-05-09T07:43:05.371Z,99911.13
2024-05-09T07:52:24.054Z,99904.88
2024-05-09T07:53:39.074Z,99913.28
2024-05-09T07:56:10.164Z,99915.16
2024-05-09T07:58:39.126Z,99912.16
2024-05-09T08:01:06.817Z,99913.53
2024-05-09T08:03:34.725Z,99915.69
2024-05-09T08:06:02.287Z,99911.75
2024-05-09T08:08:29.657Z,99913.50
2024-05-09T08:10:57.102Z,99907.28
2024-05-09T08:13:24.518Z,99905.16
2024-05-09T08:15:52.647Z,99913.94
2024-05-09T08:18:20.341Z,99920.00
2024-05-09T08:20:49.849Z,99917.03
2024-05-09T08:23:17.916Z,99913.19
2024-05-09T08:25:45.238Z,99920.13
2024-05-09T08:28:13.029Z,99909.91
2024-05-09T08:30:40.648Z,99913.47
2024-05-09T08:33:08.375Z,99899.94
2024-05-09T08:35:36.306Z,99906.69
2024-05-09T08:38:05.001Z,99900.13
2024-05-09T08:40:36.006Z,99915.28
2024-05-09T08:43:10.284Z,99904.75
2024-05-09T08:45:43.886Z,99909.16
2024-05-09T08:48:15.151Z,99906.59
2024-05-09T08:50:45.000Z,99911.19
2024-05-09T08:53:14.666Z,99911.31
2024-05-09T08:55:43.777Z,99912.25
2024-05-09T08:58:18.256Z,99908.34
2024-05-09T09:00:46.825Z,99906.88
2024-05-09T09:03:27.308Z,99909.34
2024-05-09T09:06:02.201Z,99897.94
2024-05-09T09:08:29.639Z,99893.50
2024-05-09T09:11:00.265Z,99905.22
2024-05-09T09:13:28.524Z,99898.44
2024-05-09T09:15:57.989Z,99895.31
2024-05-09T09:18:27.130Z,99892.41
2024-05-09T09:20:55.070Z,99893.91
2024-05-09T09:23:22.962Z,99896.56
2024-05-09T09:25:52.090Z,99890.28
2024-05-09T09:28:23.537Z,99887.66
2024-05-09T09:30:51.261Z,99896.22
2024-05-09T09:33:21.553Z,99893.25
2024-05-09T09:35:48.996Z,99896.06
2024-05-09T09:38:21.834Z,99885.38
2024-05-09T09:40:50.872Z,99891.47
2024-05-09T09:43:26.840Z,99888.50
2024-05-09T09:46:00.169Z,99883.72
2024-05-09T09:48:28.630Z,99879.28
2024-05-09T09:50:57.299Z,99885.53
2024-05-09T09:53:24.974Z,99889.59
2024-05-09T09:55:54.023Z,99885.97
2024-05-09T09:58:21.945Z,99879.84
2024-05-09T10:00:49.465Z,99876.75
2024-05-09T10:03:17.156Z,99874.25
2024-05-09T10:05:47.083Z,99878.75
2024-05-09T10:08:17.919Z,99876.34
2024-05-09T10:10:48.945Z,99874.09
2024-05-09T10:13:16.692Z,99875.63
2024-05-09T10:15:54.692Z,99866.59
2024-05-09T10:18:28.305Z,99876.56
2024-05-09T10:20:58.045Z,99869.38
2024-05-09T10:23:30.007Z,99873.16
2024-05-09T10:26:05.572Z,99874.09
2024-05-09T10:28:36.070Z,99868.97
2024-05-09T10:31:11.546Z,99867.00
2024-05-09T10:33:40.436Z,99867.31
2024-05-09T10:36:22.141Z,99858.56
2024-05-09T10:38:51.285Z,99854.44
2024-05-09T10:41:26.922Z,99849.81
2024-05-09T10:43:58.126Z,99858.56
2024-05-09T10:46:26.231Z,99860.28
2024-05-09T10:48:54.011Z,99854.53
2024-05-09T10:51:21.786Z,99845.34
2024-05-09T10:53:49.476Z,99849.66
2024-05-09T10:56:17.568Z,99853.53
2024-05-09T10:58:45.848Z,99842.22
2024-05-09T11:01:14.847Z,99836.81
2024-05-09T11:03:43.338Z,99842.81
2024-05-09T11:06:11.863Z,99835.47
2024-05-09T11:08:40.101Z,99832.06
2024-05-09T11:11:08.877Z,99833.09
2024-05-09T11:13:38.517Z,99826.41
2024-05-09T11:16:16.807Z,99823.22
2024-05-09T11:18:44.667Z,99823.19
2024-05-09T11:21:15.203Z,99817.00
2024-05-09T11:23:42.792Z,99809.66
2024-05-09T11:26:11.149Z,99813.97
2024-05-09T11:28:38.570Z,99809.91
2024-05-09T11:31:08.362Z,99796.19
2024-05-09T11:33:40.735Z,99805.72
2024-05-09T11:36:09.364Z,99794.75
2024-05-09T11:38:37.202Z,99801.47
2024-05-09T11:41:06.219Z,99789.09
2024-05-09T11:43:33.928Z,99788.31
2024-05-09T11:46:03.439Z,99782.00
2024-05-09T11:48:32.013Z,99781.22
2024-05-09T11:50:59.647Z,99780.66
2024-05-09T11:53:26.946Z,99784.28
2024-05-09T11:55:57.603Z,99771.88
2024-05-09T11:58:24.898Z,99766.41
2024-05-09T12:00:52.579Z,99774.72
2024-05-09T12:03:21.583Z,99774.16
2024-05-09T12:05:49.734Z,99763.13
2024-05-09T12:08:17.856Z,99762.03
2024-05-09T12:10:46.045Z,99763.13
2024-05-09T12:13:13.994Z,99764.22
2024-05-09T12:15:42.700Z,99758.72
2024-05-09T12:18:10.801Z,99756.78
2024-05-09T12:20:40.005Z,99751.53
2024-05-09T12:23:10.390Z,99752.66
2024-05-09T12:25:42.239Z,99743.25
2024-05-09T12:28:09.861Z,99742.09
2024-05-09T12:30:41.411Z,99741.81
2024-05-09T12:33:12.099Z,99741.25
2024-05-09T12:35:44.114Z,99741.50
2024-05-09T12:38:17.129Z,99739.28
2024-05-09T12:40:44.451Z,99739.00
2024-05-09T12:43:12.343Z,99730.97
2024-05-09T12:45:40.776Z,99739.78
2024-05-09T12:48:12.469Z,99734.28
2024-05-09T12:50:41.885Z,99732.38
2024-05-09T12:53:09.927Z,99727.13
2024-05-09T12:55:44.968Z,99722.75
2024-05-09T12:58:22.753Z,99721.66
2024-05-09T13:00:52.728Z,99718.06
2024-05-09T13:03:20.899Z,99727.16
2024-05-09T13:05:50.187Z,99721.09
2024-05-09T13:08:17.918Z,99702.34
2024-05-09T13:10:45.539Z,99700.16
2024-05-09T13:13:13.582Z,99706.78
2024-05-09T13:15:41.634Z,99697.41
2024-05-09T13:18:12.404Z,99706.25
2024-05-09T13:20:39.747Z,99704.06
2024-05-09T13:23:08.663Z,99692.75
2024-05-09T13:25:39.081Z,99691.94
2024-05-09T13:28:08.092Z,99696.34
2024-05-09T13:30:40.631Z,99688.63
2024-05-09T13:33:11.914Z,99692.75
2024-05-09T13:35:41.998Z,99692.50
2024-05-09T13:38:14.030Z,99690.84
2024-05-09T13:40:41.882Z,99688.34
2024-05-09T13:43:09.529Z,99693.88
2024-05-09T13:45:37.334Z,99683.41
2024-05-09T13:48:07.111Z,99671.00
2024-05-09T13:50:36.615Z,99672.97
2024-05-09T13:53:07.033Z,99673.78
2024-05-09T13:55:37.898Z,99663.28
2024-05-09T13:58:09.638Z,99666.59
2024-05-09T14:00:45.950Z,99652.25
2024-05-09T14:03:18.892Z,99640.66
2024-05-09T14:05:48.404Z,99643.41
2024-05-09T14:08:20.297Z,99634.03
2024-05-09T14:10:49.606Z,99635.13
2024-05-09T14:13:17.496Z,99638.44
2024-05-09T14:15:46.290Z,99637.03
2024-05-09T14:18:14.926Z,99624.91
2024-05-09T14:20:43.503Z,99619.66
2024-05-09T14:23:11.306Z,99617.72
2024-05-09T14:25:42.799Z,99617.72
2024-05-09T14:28:12.980Z,99617.19
2024-05-09T14:30:50.335Z,99611.69
2024-05-09T14:33:23.765Z,99615.84
2024-05-09T14:35:51.469Z,99613.91
2024-05-09T14:38:19.163Z,99610.88
2024-05-09T14:40:47.525Z,99615.03
2024-05-09T14:43:18.825Z,99606.75
2024-05-09T14:45:46.746Z,99602.34
2024-05-09T14:48:20.532Z,99602.06
2024-05-09T14:50:51.193Z,99591.31
2024-05-09T14:53:18.613Z,99595.72
2024-05-09T14:55:46.260Z,99585.56
2024-05-09T14:58:14.171Z,99588.31
2024-05-09T15:00:48.206Z,99576.72
2024-05-09T15:03:19.751Z,99575.63
2024-05-09T15:05:48.703Z,99567.31
2024-05-09T15:08:18.678Z,99568.41
2024-05-09T15:10:50.112Z,99565.09
2024-05-09T15:13:18.406Z,99562.91
2024-05-09T15:15:46.039Z,99575.03
2024-05-09T15:18:14.689Z,99557.09
2024-05-09T15:20:45.091Z,99554.06
2024-05-09T15:23:12.537Z,99562.66
2024-05-09T15:25:40.383Z,99576.19
2024-05-09T15:28:08.466Z,99572.31
2024-05-09T15:30:36.720Z,99580.59
2024-05-09T15:33:05.192Z,99562.41
2024-05-09T15:35:33.855Z,99569.56
2024-05-09T15:38:03.247Z,99550.81
2024-05-09T15:40:37.925Z,99549.72
2024-05-09T15:43:08.274Z,99551.91
2024-05-09T15:45:36.250Z,99561.31
2024-05-09T15:48:04.692Z,99555.50
2024-05-09T15:50:37.749Z,99558.53
2024-05-09T15:53:09.876Z,99552.19
2024-05-09T15:55:38.247Z,99543.63
2024-05-09T15:58:07.104Z,99552.75
2024-05-09T16:00:39.482Z,99551.38
2024-05-09T16:03:14.418Z,99541.44
2024-05-09T16:05:46.660Z,99549.16
2024-05-09T16:08:16.029Z,99539.78
2024-05-09T16:10:46.303Z,99545.84
2024-05-09T16:13:15.384Z,99544.75
2024-05-09T16:15:49.032Z,99537.84
2024-05-09T16:18:17.463Z,99531.25
2024-05-09T16:20:47.216Z,99534.81
2024-05-09T16:23:17.480Z,99534.28
2024-05-09T16:25:48.394Z,99524.91
2024-05-09T16:28:16.870Z,99528.78
2024-05-09T16:30:44.735Z,99527.09
2024-05-09T16:33:12.760Z,99519.94
2024-05-09T16:35:43.957Z,99520.47
2024-05-09T16:38:11.573Z,99527.38
2024-05-09T16:40:41.042Z,99523.25
2024-05-09T16:43:10.750Z,99512.78
2024-05-09T16:45:40.639Z,99511.69
2024-05-09T16:48:09.068Z,99517.75
2024-05-09T16:50:38.929Z,99515.00
2024-05-09T16:53:07.543Z,99512.25
2024-05-09T16:55:36.176Z,99511.97
2024-05-09T16:58:04.798Z,99509.22
2024-05-09T17:00:40.249Z,99508.38
2024-05-09T17:03:12.187Z,99497.94
2024-05-09T17:05:41.003Z,99497.66
2024-05-09T17:08:09.122Z,99502.88
2024-05-09T17:10:37.192Z,99501.78
2024-05-09T17:13:06.870Z,99499.31
2024-05-09T17:15:36.799Z,99497.66
2024-05-09T17:18:06.063Z,99493.25
2024-05-09T17:20:36.386Z,99493.25
2024-05-09T17:23:12.816Z,99493.25
2024-05-09T17:25:41.101Z,99498.47
2024-05-09T17:28:09.537Z,99494.06
2024-05-09T17:30:39.734Z,99494.06
2024-05-09T17:33:10.264Z,99483.59
2024-05-09T17:35:39.027Z,99482.50
2024-05-09T17:38:09.043Z,99487.44
2024-05-09T17:40:38.269Z,99492.41
2024-05-09T17:43:08.956Z,99494.59
2024-05-09T17:45:39.221Z,99496.25
2024-05-09T17:48:09.679Z,99490.72
2024-05-09T17:50:38.091Z,99490.72
2024-05-09T17:53:07.099Z,99494.03
2024-05-09T17:55:35.543Z,99500.06
2024-05-09T17:58:04.114Z,99503.38
2024-05-09T18:00:39.443Z,99502.53
2024-05-09T18:03:13.791Z,99496.75
2024-05-09T18:05:43.425Z,99502.78
2024-05-09T18:08:11.951Z,99502.22
2024-05-09T18:10:43.160Z,99502.22
2024-05-09T18:13:12.368Z,99498.91
2024-05-09T18:15:40.196Z,99503.28
2024-05-09T18:18:09.051Z,99512.34
2024-05-09T18:20:42.990Z,99513.41
2024-05-09T18:23:15.176Z,99512.56
2024-05-09T18:25:44.040Z,99507.84
2024-05-09T18:28:13.871Z,99510.63
2024-05-09T18:30:41.602Z,99514.44
2024-05-09T18:33:11.272Z,99519.09
2024-05-09T18:35:39.313Z,99517.69
2024-05-09T18:38:06.825Z,99511.34
2024-05-09T18:40:38.523Z,99517.59
2024-05-09T18:43:08.817Z,99521.16
2024-05-09T18:45:42.684Z,99517.81
2024-05-09T18:48:10.572Z,99516.69
2024-05-09T18:50:40.576Z,99511.97
2024-05-09T18:53:13.683Z,99513.88
2024-05-09T18:55:43.774Z,99506.66
2024-05-09T18:58:15.293Z,99502.22
2024-05-09T19:00:45.380Z,99515.34
2024-05-09T19:03:16.192Z,99510.91
2024-05-09T19:05:45.352Z,99511.97
2024-05-09T19:08:14.771Z,99509.19
2024-05-09T19:10:42.443Z,99513.25
2024-05-09T19:13:12.741Z,99514.28
2024-05-09T19:15:42.772Z,99511.75
2024-05-09T19:18:13.256Z,99513.38
2024-05-09T19:20:41.481Z,99518.25
2024-05-09T19:23:08.794Z,99517.63
2024-05-09T19:25:36.685Z,99516.97
2024-05-09T19:28:05.565Z,99528.97
2024-05-09T19:30:39.373Z,99524.53
2024-05-09T19:33:11.866Z,99526.06
2024-05-09T19:35:40.102Z,99530.72
2024-05-09T19:38:07.840Z,99529.69
2024-05-09T19:40:35.918Z,99534.03
2024-05-09T19:43:04.999Z,99533.72
2024-05-09T19:45:34.448Z,99535.03
2024-05-09T19:48:02.824Z,99539.13
2024-05-09T19:50:37.922Z,99535.25
2024-05-09T19:53:11.337Z,99538.75
2024-05-09T19:55:40.924Z,99550.22
2024-05-09T19:58:09.591Z,99542.75
2024-05-09T20:00:40.770Z,99549.56
2024-05-09T20:03:11.511Z,99550.06
2024-05-09T20:05:39.729Z,99553.28
2024-05-09T20:08:07.725Z,99554.88
2024-05-09T20:10:36.368Z,99557.53
2024-05-09T20:13:07.930Z,99561.88
2024-05-09T20:15:37.096Z,99568.66
2024-05-09T20:18:05.541Z,99566.69
2024-05-09T20:20:39.263Z,99572.66
2024-05-09T20:23:10.285Z,99578.66
2024-05-09T20:25:37.843Z,99584.63
2024-05-09T20:28:09.051Z,99579.66
2024-05-09T20:30:36.951Z,99572.75
2024-05-09T20:33:07.572Z,99574.38
2024-05-09T20:35:36.337Z,99590.47
2024-05-09T20:38:04.412Z,99587.66
2024-05-09T20:40:36.183Z,99589.81
2024-05-09T20:43:08.446Z,99594.13
2024-05-09T20:45:36.273Z,99600.09
2024-05-09T20:48:04.038Z,99595.94
2024-05-09T20:50:38.141Z,99599.41
2024-05-09T20:53:14.244Z,99604.56
2024-05-09T20:55:43.483Z,99605.88
2024-05-09T20:58:11.429Z,99605.53
2024-05-09T21:00:42.788Z,99611.50
2024-05-09T21:03:13.603Z,99599.38
2024-05-09T21:05:42.071Z,99593.53
2024-05-09T21:08:09.453Z,99606.88
2024-05-09T21:10:37.530Z,99604.88
2024-05-09T21:13:06.611Z,99608.13
2024-05-09T21:15:35.124Z,99607.78
2024-05-09T21:18:03.097Z,99601.97
2024-05-09T21:20:33.310Z,99589.84
2024-05-09T21:23:02.147Z,99601.28
2024-05-09T21:28:07.547Z,99597.28
2024-05-09T21:30:41.493Z,99602.16
2024-05-09T21:33:12.430Z,99604.53
2024-05-09T21:35:42.069Z,99611.34
2024-05-09T21:38:09.505Z,99607.44
2024-05-09T21:40:38.105Z,99597.00
2024-05-09T21:43:09.694Z,99606.28
2024-05-09T21:45:38.441Z,99600.69
2024-05-09T21:48:07.183Z,99605.81
2024-05-09T21:50:40.327Z,99605.47
2024-05-09T21:53:10.420Z,99603.72
2024-05-09T21:55:37.835Z,99601.44
2024-05-09T21:58:05.643Z,99605.75
2024-05-09T22:00:37.687Z,99599.09
2024-05-09T22:03:11.440Z,99595.38
2024-05-09T22:05:43.701Z,99598.59
2024-05-09T22:08:11.278Z,99606.22
2024-05-09T22:10:38.878Z,99598.50
2024-05-09T22:13:07.323Z,99597.31
2024-05-09T22:15:40.122Z,99596.94
2024-05-09T22:18:09.962Z,99598.75
2024-05-09T22:20:44.881Z,99600.53
2024-05-09T22:23:13.816Z,99596.00
2024-05-09T22:25:41.290Z,99596.13
2024-05-09T22:28:08.938Z,99600.69
2024-05-09T22:30:39.279Z,99594.75
2024-05-09T22:33:10.331Z,99609.56
2024-05-09T22:35:39.590Z,99599.81
2024-05-09T22:38:07.018Z,99602.66
2024-05-09T22:40:45.191Z,99594.81
2024-05-09T22:43:24.276Z,99592.88
2024-05-09T22:45:55.041Z,99599.25
2024-05-09T22:48:24.068Z,99599.38
2024-05-09T22:50:52.713Z,99592.94
2024-05-09T22:53:23.922Z,99603.72
2024-05-09T22:55:51.392Z,99596.47
2024-05-09T22:58:22.521Z,99585.44
2024-05-09T23:00:50.205Z,99600.63
2024-05-09T23:03:21.245Z,99598.59
2024-05-09T23:05:49.279Z,99596.53
2024-05-09T23:08:16.630Z,99589.91
2024-05-09T23:10:43.945Z,99599.59
2024-05-09T23:13:11.289Z,99603.38
2024-05-09T23:15:39.059Z,99603.84
2024-05-09T23:18:07.306Z,99602.63
2024-05-09T23:20:39.688Z,99594.31
2024-05-09T23:23:09.206Z,99599.75
2024-05-09T23:25:37.916Z,99599.16
2024-05-09T23:28:07.083Z,99599.41
2024-05-09T23:30:38.830Z,99596.91
2024-05-09T23:33:08.933Z,99602.34
2024-05-09T23:35:36.480Z,99604.00
2024-05-09T23:38:04.037Z,99596.91
2024-05-09T23:40:38.477Z,99597.72
2024-05-09T23:43:09.389Z,99595.69
2024-05-09T23:45:37.329Z,99596.16
2024-05-09T23:48:05.531Z,99585.94
2024-05-09T23:50:37.010Z,99589.94
2024-05-09T23:53:08.646Z,99588.47
2024-05-09T23:55:37.409Z,99591.66
2024-05-09T23:58:05.269Z,99590.44
